Time;durP1;ratioP1;P1;durP2;ratioP2;P2;SDS_P1;SDS_P2;PMS_P1;PMS_P2;Temp;Humidity;BMP_temperature;BMP_pressure;BME280_temperature;BME280_humidity;BME280_pressure;Samples;Min_cycle;Max_cycle;Signal;HPM_P1;HPM_P2
2023/06/10 00:01:48;;;;;;;8.63;2.90;;;17.70;88.20;;;;;;5098674;28;20049;-72
2023/06/10 00:04:16;;;;;;;9.77;3.40;;;17.70;88.50;;;;;;5097688;28;20128;-73
2023/06/10 00:06:41;;;;;;;9.07;3.30;;;17.70;88.30;;;;;;5115746;28;20055;-72
2023/06/10 00:09:10;;;;;;;8.30;3.57;;;17.70;88.40;;;;;;5080725;28;20048;-72
2023/06/10 00:11:37;;;;;;;10.57;3.55;;;17.70;88.30;;;;;;5097911;28;20051;-72
2023/06/10 00:14:03;;;;;;;9.85;3.38;;;17.60;88.30;;;;;;5097683;28;20047;-73
2023/06/10 00:16:30;;;;;;;9.63;3.00;;;17.60;88.40;;;;;;5115541;28;20039;-72
2023/06/10 00:19:00;;;;;;;11.07;3.30;;;17.60;88.30;;;;;;5115455;28;20047;-74
2023/06/10 00:21:29;;;;;;;6.45;2.80;;;17.50;88.30;;;;;;5081132;28;20070;-73
2023/06/10 00:23:55;;;;;;;9.07;3.30;;;17.50;88.40;;;;;;5115920;28;20078;-72
2023/06/10 00:26:25;;;;;;;10.43;3.63;;;17.50;88.40;;;;;;5081340;28;20135;-73
2023/06/10 00:28:52;;;;;;;12.68;3.75;;;17.40;88.50;;;;;;5097497;28;20122;-72
2023/06/10 00:31:17;;;;;;;14.50;3.85;;;17.40;88.60;;;;;;5115205;28;20131;-73
2023/06/10 00:33:43;;;;;;;10.10;3.50;;;17.40;88.60;;;;;;5080076;28;20138;-73
2023/06/10 00:36:09;;;;;;;7.33;3.23;;;17.40;88.80;;;;;;5097551;28;20040;-73
2023/06/10 00:38:35;;;;;;;8.43;3.30;;;17.40;88.90;;;;;;5115116;28;20039;-73
2023/06/10 00:41:01;;;;;;;8.73;3.10;;;17.30;88.90;;;;;;5079933;28;20105;-72
2023/06/10 00:43:27;;;;;;;10.63;3.30;;;17.30;89.00;;;;;;5097202;28;20064;-73
2023/06/10 00:45:53;;;;;;;12.50;3.53;;;17.30;89.10;;;;;;5063253;28;20062;-71
2023/06/10 00:48:19;;;;;;;9.48;4.20;;;17.20;89.30;;;;;;5096613;28;20378;-72
2023/06/10 00:50:48;;;;;;;9.43;3.63;;;17.20;89.40;;;;;;5114524;28;20493;-72
2023/06/10 00:53:14;;;;;;;8.63;3.75;;;17.10;89.70;;;;;;5079938;28;20159;-77
2023/06/10 00:55:41;;;;;;;9.27;3.90;;;17.10;89.80;;;;;;5080172;28;20043;-72
2023/06/10 00:58:07;;;;;;;8.90;3.58;;;17.10;90.00;;;;;;5097375;28;20091;-74
2023/06/10 01:00:32;;;;;;;11.77;4.00;;;17.00;90.60;;;;;;5097041;28;20054;-74
2023/06/10 01:02:58;;;;;;;12.17;4.07;;;17.00;90.20;;;;;;5096410;28;20044;-71
2023/06/10 01:05:24;;;;;;;9.13;3.77;;;16.90;90.30;;;;;;5079817;28;20489;-72
2023/06/10 01:08:28;;;;;;;12.60;4.85;;;17.00;90.40;;;;;;5096501;28;20504;-72
2023/06/10 01:11:00;;;;;;;10.40;3.63;;;16.90;90.80;;;;;;5096953;28;20098;-71
2023/06/10 01:13:31;;;;;;;9.80;3.92;;;16.80;90.90;;;;;;5096845;28;20126;-73
2023/06/10 01:15:57;;;;;;;14.10;3.92;;;16.80;91.00;;;;;;5079807;28;20427;-73
2023/06/10 01:18:30;;;;;;;11.55;4.00;;;16.80;91.20;;;;;;5096900;28;20168;-73
2023/06/10 01:20:56;;;;;;;13.60;3.92;;;16.80;91.30;;;;;;5097278;28;20047;-72
2023/06/10 01:23:22;;;;;;;11.48;4.20;;;16.80;91.40;;;;;;5079133;28;20367;-72
2023/06/10 01:26:02;;;;;;;13.10;4.05;;;16.70;91.50;;;;;;5114288;28;20126;-73
2023/06/10 01:28:53;;;;;;;9.60;4.30;;;16.70;91.70;;;;;;5079171;28;20112;-72
2023/06/10 01:31:37;;;;;;;14.43;4.00;;;16.70;92.00;;;;;;5095969;28;20047;-78
2023/06/10 01:34:07;;;;;;;8.98;3.95;;;16.60;92.10;;;;;;5096289;28;20134;-72
2023/06/10 01:36:36;;;;;;;12.02;4.03;;;16.60;92.10;;;;;;5096382;28;20386;-72
2023/06/10 01:39:04;;;;;;;8.73;3.97;;;16.60;92.50;;;;;;5113871;28;20071;-73
2023/06/10 01:41:30;;;;;;;11.07;4.30;;;16.60;92.80;;;;;;5095620;28;20044;-72
2023/06/10 01:43:56;;;;;;;8.75;3.83;;;16.60;92.90;;;;;;5113895;28;20050;-71
2023/06/10 01:46:22;;;;;;;9.80;4.57;;;16.50;93.10;;;;;;5112799;28;20401;-72
2023/06/10 01:48:48;;;;;;;10.83;5.07;;;16.50;93.30;;;;;;5079582;28;20470;-72
2023/06/10 01:51:14;;;;;;;9.57;4.10;;;16.50;93.40;;;;;;5095756;28;20277;-72
2023/06/10 01:53:40;;;;;;;11.20;4.57;;;16.50;93.60;;;;;;5113797;28;20047;-72
2023/06/10 01:56:05;;;;;;;11.80;4.50;;;16.50;93.80;;;;;;5113811;28;20066;-72
2023/06/10 01:58:31;;;;;;;13.05;4.70;;;16.40;93.90;;;;;;5079743;28;20461;-72
2023/06/10 02:00:57;;;;;;;10.40;4.50;;;16.40;94.20;;;;;;5078978;28;20112;-72
2023/06/10 02:03:22;;;;;;;9.93;4.60;;;16.30;94.40;;;;;;5113641;28;20054;-80
2023/06/10 02:05:49;;;;;;;10.65;4.50;;;16.30;94.70;;;;;;5095968;28;20079;-73
2023/06/10 02:08:15;;;;;;;9.23;4.85;;;16.30;95.00;;;;;;5113764;28;20043;-72
2023/06/10 02:10:40;;;;;;;10.52;4.57;;;16.30;95.80;;;;;;5095613;28;20036;-72
2023/06/10 02:13:06;;;;;;;11.10;4.57;;;16.20;95.40;;;;;;5095521;28;20062;-71
2023/06/10 02:15:32;;;;;;;10.43;4.53;;;16.10;96.40;;;;;;5114347;28;20173;-72
2023/06/10 02:17:59;;;;;;;12.85;4.30;;;16.10;96.10;;;;;;5113354;28;20522;-71
2023/06/10 02:20:25;;;;;;;;;;;16.00;96.40;;;;;;5096761;28;20066;-72
2023/06/10 02:22:51;;;;;;;14.85;4.80;;;16.00;99.20;;;;;;5113449;28;20064;-72
2023/06/10 02:25:17;;;;;;;11.90;4.53;;;16.00;98.20;;;;;;5091601;28;20079;-73
2023/06/10 02:27:43;;;;;;;11.25;4.55;;;15.90;97.80;;;;;;5075105;28;20043;-72
2023/06/10 02:30:12;;;;;;;9.90;4.60;;;15.90;98.90;;;;;;5091891;28;20040;-72
2023/06/10 02:32:38;;;;;;;14.95;4.72;;;15.90;98.70;;;;;;5075621;28;20051;-72
2023/06/10 02:35:04;;;;;;;8.93;4.50;;;15.90;99.90;;;;;;5091889;28;20374;-72
2023/06/10 02:37:30;;;;;;;9.77;4.55;;;15.80;99.60;;;;;;5074941;28;20044;-72
2023/06/10 02:39:55;;;;;;;11.63;4.70;;;15.80;99.50;;;;;;5091967;28;20067;-72
2023/06/10 02:42:21;;;;;;;11.40;4.50;;;15.80;99.60;;;;;;5091444;28;20123;-72
2023/06/10 02:44:47;;;;;;;11.13;4.80;;;15.70;99.90;;;;;;5075856;28;20051;-72
2023/06/10 02:47:12;;;;;;;13.35;5.50;;;15.70;99.90;;;;;;5092981;28;20513;-71
2023/06/10 02:49:38;;;;;;;14.57;5.00;;;15.70;99.90;;;;;;5091621;28;20044;-73
2023/06/10 02:52:04;;;;;;;11.13;4.82;;;15.60;99.90;;;;;;5092597;28;20052;-72
2023/06/10 02:54:30;;;;;;;9.63;4.90;;;15.60;99.90;;;;;;5093406;28;20048;-80
2023/06/10 02:56:56;;;;;;;14.35;5.05;;;15.50;99.90;;;;;;5092356;28;20051;-71
2023/06/10 02:59:22;;;;;;;12.93;5.00;;;15.50;99.90;;;;;;5096551;28;20123;-72
2023/06/10 03:01:47;;;;;;;11.95;4.60;;;15.40;99.90;;;;;;5095189;28;20052;-72
2023/06/10 03:04:14;;;;;;;12.15;4.63;;;15.40;99.90;;;;;;5095174;28;20047;-71
2023/06/10 03:06:40;;;;;;;11.15;5.32;;;15.40;99.90;;;;;;5096399;28;20044;-71
2023/06/10 03:09:09;;;;;;;10.00;4.68;;;15.40;99.90;;;;;;5096243;28;20110;-71
2023/06/10 03:11:35;;;;;;;13.27;4.78;;;15.40;99.90;;;;;;5095313;28;20052;-72
2023/06/10 03:14:01;;;;;;;11.45;4.80;;;15.30;99.90;;;;;;5097283;28;20044;-72
2023/06/10 03:16:27;;;;;;;13.63;4.85;;;15.30;99.90;;;;;;5095957;28;20040;-71
2023/06/10 03:18:53;;;;;;;8.27;4.40;;;15.30;99.90;;;;;;5096199;28;20132;-72
2023/06/10 03:21:19;;;;;;;13.18;4.80;;;15.30;99.90;;;;;;5096297;28;20410;-71
2023/06/10 03:23:45;;;;;;;10.07;4.85;;;15.30;99.90;;;;;;5100375;28;20051;-72
2023/06/10 03:26:14;;;;;;;12.77;4.43;;;15.30;99.90;;;;;;5098230;28;20377;-73
2023/06/10 03:28:41;;;;;;;12.25;4.63;;;15.30;99.90;;;;;;5098001;28;20052;-72
2023/06/10 03:31:07;;;;;;;11.18;4.53;;;15.30;99.90;;;;;;5116349;28;20040;-75
2023/06/10 03:33:33;;;;;;;15.38;4.97;;;15.20;99.90;;;;;;5116899;28;20051;-72
2023/06/10 03:35:59;;;;;;;12.73;4.63;;;15.20;99.90;;;;;;5064505;28;20050;-73
2023/06/10 03:38:25;;;;;;;13.32;4.43;;;15.20;99.90;;;;;;5064639;28;20043;-71
2023/06/10 03:40:51;;;;;;;9.48;4.65;;;15.20;99.90;;;;;;5116356;28;20374;-72
2023/06/10 03:43:16;;;;;;;11.88;4.60;;;15.20;99.90;;;;;;5098304;28;20069;-74
2023/06/10 03:45:42;;;;;;;14.40;4.93;;;15.40;99.90;;;;;;5115827;28;20464;-71
2023/06/10 03:48:08;;;;;;;11.52;4.65;;;15.40;99.90;;;;;;5097770;28;20044;-72
2023/06/10 03:50:36;;;;;;;10.27;4.72;;;15.40;99.90;;;;;;5115978;28;20404;-73
2023/06/10 03:53:02;;;;;;;8.80;4.20;;;15.50;99.90;;;;;;5098527;28;20524;-72
2023/06/10 03:55:28;;;;;;;12.43;4.32;;;15.40;99.90;;;;;;5115926;28;20083;-73
2023/06/10 03:57:53;;;;;;;13.47;4.30;;;15.40;99.90;;;;;;5098414;28;20419;-74
2023/06/10 04:00:21;;;;;;;9.45;4.53;;;15.40;99.90;;;;;;5097718;28;20282;-73
2023/06/10 04:02:49;;;;;;;14.30;4.90;;;15.40;99.90;;;;;;5097527;28;20075;-73
2023/06/10 04:05:21;;;;;;;11.55;4.47;;;15.30;99.90;;;;;;5081083;28;20044;-72
2023/06/10 04:07:48;;;;;;;10.13;4.30;;;15.40;99.90;;;;;;5097732;28;20177;-73
2023/06/10 04:10:14;;;;;;;10.23;4.18;;;15.40;99.90;;;;;;5096827;28;20043;-72
2023/06/10 04:12:41;;;;;;;11.95;4.22;;;15.40;99.90;;;;;;5097333;28;20051;-72
2023/06/10 04:15:07;;;;;;;11.20;4.47;;;15.40;99.90;;;;;;5116119;28;20140;-73
2023/06/10 04:17:33;;;;;;;10.73;4.00;;;15.40;99.90;;;;;;5097634;28;20040;-73
2023/06/10 04:20:00;;;;;;;12.10;4.70;;;15.40;99.90;;;;;;5080513;28;20432;-72
2023/06/10 04:22:26;;;;;;;9.30;4.40;;;15.40;99.90;;;;;;5097117;28;20062;-72
2023/06/10 04:24:52;;;;;;;12.97;4.60;;;15.40;99.90;;;;;;5115069;28;20455;-71
2023/06/10 04:27:18;;;;;;;13.67;5.13;;;15.40;99.90;;;;;;5115303;28;20059;-71
2023/06/10 04:29:44;;;;;;;12.50;4.97;;;15.50;99.90;;;;;;5097157;28;20043;-72
2023/06/10 04:32:10;;;;;;;11.88;4.38;;;15.50;99.90;;;;;;5080166;28;20504;-72
2023/06/10 04:34:40;;;;;;;9.88;4.35;;;15.50;99.90;;;;;;5079806;28;20078;-72
2023/06/10 04:37:06;;;;;;;11.82;4.43;;;15.60;99.90;;;;;;5097854;28;20051;-73
2023/06/10 04:39:32;;;;;;;10.73;4.80;;;15.60;99.90;;;;;;5115676;28;20100;-72
2023/06/10 04:41:59;;;;;;;12.80;4.45;;;15.60;99.90;;;;;;5115059;28;20130;-73
2023/06/10 04:44:25;;;;;;;11.93;4.70;;;15.70;99.90;;;;;;5115012;28;20043;-72
2023/06/10 04:46:50;;;;;;;10.30;4.85;;;15.70;99.90;;;;;;5114926;28;20126;-73
2023/06/10 04:49:16;;;;;;;12.75;4.50;;;15.80;99.90;;;;;;5080597;28;20039;-72
2023/06/10 04:51:42;;;;;;;12.20;4.20;;;15.80;99.90;;;;;;5114827;28;20048;-73
2023/06/10 04:54:08;;;;;;;10.60;4.60;;;15.80;99.90;;;;;;5080150;28;20050;-72
2023/06/10 04:56:33;;;;;;;12.65;4.50;;;15.90;99.90;;;;;;5114363;28;20378;-73
2023/06/10 04:59:00;;;;;;;11.10;4.32;;;15.90;99.90;;;;;;5115180;28;20469;-73
2023/06/10 05:01:26;;;;;;;10.20;4.95;;;15.90;99.90;;;;;;5096682;28;20051;-74
2023/06/10 05:03:51;;;;;;;9.88;5.15;;;15.90;99.90;;;;;;5096527;28;20366;-72
2023/06/10 05:06:17;;;;;;;9.65;4.20;;;16.00;99.90;;;;;;5114462;28;20043;-71
2023/06/10 05:08:43;;;;;;;10.98;4.38;;;16.00;99.90;;;;;;5114840;28;20060;-72
2023/06/10 05:11:09;;;;;;;10.57;5.20;;;16.10;99.90;;;;;;5096263;28;20043;-72
2023/06/10 05:13:35;;;;;;;8.85;4.15;;;16.10;99.90;;;;;;5096222;28;20043;-72
2023/06/10 05:16:01;;;;;;;10.43;4.00;;;16.10;99.90;;;;;;5079452;28;20048;-71
2023/06/10 05:18:27;;;;;;;11.48;4.20;;;16.20;99.90;;;;;;5079515;28;20047;-71
2023/06/10 05:20:53;;;;;;;12.60;4.70;;;16.20;99.90;;;;;;5113272;28;20055;-72
2023/06/10 05:23:20;;;;;;;12.98;4.68;;;16.30;99.90;;;;;;5096327;28;20138;-72
2023/06/10 05:25:46;;;;;;;11.32;4.63;;;16.30;99.90;;;;;;5114197;28;20401;-71
2023/06/10 05:28:12;;;;;;;12.65;4.57;;;16.30;99.90;;;;;;5095699;28;20580;-71
2023/06/10 05:30:37;;;;;;;12.77;5.18;;;16.40;99.90;;;;;;5095845;28;20134;-73
2023/06/10 05:33:04;;;;;;;12.63;4.40;;;16.40;99.90;;;;;;5095903;28;20131;-71
2023/06/10 05:35:30;;;;;;;9.23;4.53;;;16.40;99.90;;;;;;5096398;28;20059;-72
2023/06/10 05:37:56;;;;;;;9.02;4.25;;;16.50;99.90;;;;;;5113996;28;20058;-70
2023/06/10 05:40:22;;;;;;;12.82;5.00;;;16.70;99.90;;;;;;5113650;28;20044;-74
2023/06/10 05:42:48;;;;;;;11.27;4.78;;;16.60;99.90;;;;;;5079524;28;20104;-73
2023/06/10 05:45:13;;;;;;;10.67;4.47;;;16.80;99.90;;;;;;5113933;28;20044;-72
2023/06/10 05:47:40;;;;;;;12.00;5.00;;;16.70;99.90;;;;;;5112672;28;20047;-72
2023/06/10 05:50:07;;;;;;;11.90;5.60;;;16.60;99.90;;;;;;5096259;28;20362;-71
2023/06/10 05:52:33;;;;;;;;;;;16.70;99.90;;;;;;5097091;28;20055;-71
2023/06/10 05:54:59;;;;;;;13.23;5.55;;;16.80;99.90;;;;;;5078981;28;20006;-71
2023/06/10 05:57:25;;;;;;;11.53;4.77;;;16.80;99.90;;;;;;5095930;28;20047;-72
2023/06/10 05:59:51;;;;;;;13.43;4.80;;;16.90;99.90;;;;;;5095630;28;20631;-72
2023/06/10 06:02:17;;;;;;;22.38;5.57;;;16.80;99.90;;;;;;5113681;28;20043;-72
2023/06/10 06:04:43;;;;;;;12.50;4.53;;;16.80;99.90;;;;;;5113616;28;20047;-72
2023/06/10 06:07:09;;;;;;;9.82;4.43;;;16.80;99.90;;;;;;5096031;28;20039;-73
2023/06/10 06:09:34;;;;;;;16.17;5.07;;;16.90;99.90;;;;;;5079458;28;20039;-73
2023/06/10 06:12:00;;;;;;;11.80;4.90;;;17.00;99.90;;;;;;5062105;28;20131;-72
2023/06/10 06:14:26;;;;;;;11.88;5.20;;;17.00;99.90;;;;;;5062186;28;20055;-73
2023/06/10 06:16:52;;;;;;;16.30;5.40;;;17.00;99.90;;;;;;5112391;28;20101;-73
2023/06/10 06:19:17;;;;;;;12.10;4.97;;;17.10;99.90;;;;;;5095220;28;20437;-72
2023/06/10 06:21:43;;;;;;;11.68;4.47;;;17.10;99.90;;;;;;5095500;28;20109;-72
2023/06/10 06:24:09;;;;;;;13.07;4.88;;;17.20;99.90;;;;;;5113469;28;20059;-73
2023/06/10 06:26:35;;;;;;;11.05;4.55;;;17.30;99.90;;;;;;5096250;28;20399;-73
2023/06/10 06:29:00;;;;;;;10.00;4.67;;;17.50;99.90;;;;;;5078463;28;20078;-74
2023/06/10 06:31:26;;;;;;;12.23;4.57;;;17.50;99.90;;;;;;5095404;28;20063;-73
2023/06/10 06:33:52;;;;;;;10.90;4.47;;;17.80;99.90;;;;;;5099864;28;20088;-74
2023/06/10 06:36:18;;;;;;;11.73;4.23;;;17.90;99.90;;;;;;5117458;28;20146;-74
2023/06/10 06:38:43;;;;;;;14.80;4.65;;;18.00;99.90;;;;;;5099425;28;20044;-73
2023/06/10 06:41:09;;;;;;;12.53;4.70;;;18.10;99.90;;;;;;5099232;28;20048;-73
2023/06/10 06:43:35;;;;;;;11.33;4.80;;;18.20;99.90;;;;;;5099692;28;20039;-74
2023/06/10 06:46:00;;;;;;;10.93;5.07;;;18.20;99.90;;;;;;5099397;28;20362;-78
2023/06/10 06:48:26;;;;;;;13.90;4.83;;;18.30;99.90;;;;;;5117159;28;20046;-73
2023/06/10 06:50:52;;;;;;;13.90;4.23;;;18.30;99.90;;;;;;5099015;28;20484;-74
2023/06/10 06:53:18;;;;;;;10.53;4.70;;;18.20;99.90;;;;;;5099935;28;20500;-71
2023/06/10 06:55:43;;;;;;;12.23;4.40;;;18.20;99.90;;;;;;5099721;28;20043;-73
2023/06/10 06:58:09;;;;;;;11.90;5.00;;;18.30;99.90;;;;;;5098633;28;20055;-72
2023/06/10 07:00:35;;;;;;;11.27;4.30;;;18.50;99.90;;;;;;5099836;28;20083;-73
2023/06/10 07:03:01;;;;;;;10.30;4.37;;;18.40;99.90;;;;;;5116998;28;20050;-72
2023/06/10 07:05:27;;;;;;;11.20;4.43;;;18.40;99.90;;;;;;5081979;28;20051;-74
2023/06/10 07:07:54;;;;;;;12.63;4.50;;;18.50;99.90;;;;;;5098628;28;20051;-73
2023/06/10 07:10:25;;;;;;;10.13;4.15;;;18.50;99.90;;;;;;5081909;28;20039;-73
2023/06/10 07:12:51;;;;;;;12.45;4.50;;;18.60;99.90;;;;;;5099529;28;20043;-73
2023/06/10 07:15:16;;;;;;;11.75;4.20;;;18.70;99.90;;;;;;5081858;28;20469;-74
2023/06/10 07:17:43;;;;;;;13.90;4.87;;;18.70;99.90;;;;;;5099498;28;20052;-74
2023/06/10 07:20:09;;;;;;;11.63;4.85;;;18.60;99.90;;;;;;5117337;28;20036;-73
2023/06/10 07:22:35;;;;;;;11.45;4.45;;;18.60;99.90;;;;;;5098472;28;20122;-72
2023/06/10 07:25:03;;;;;;;10.43;3.83;;;18.70;99.90;;;;;;5094731;28;20517;-71
2023/06/10 07:27:29;;;;;;;10.98;4.45;;;18.90;99.90;;;;;;5095478;28;20055;-73
2023/06/10 07:29:55;;;;;;;11.87;4.17;;;18.90;99.90;;;;;;5096562;28;20055;-74
2023/06/10 07:32:22;;;;;;;10.17;4.00;;;19.00;99.90;;;;;;5062043;28;20082;-72
2023/06/10 07:34:47;;;;;;;;;;;19.10;99.90;;;;;;5078734;28;20047;-72
2023/06/10 07:37:13;;;;;;;7.63;3.63;;;19.20;99.90;;;;;;5096004;28;19927;-72
2023/06/10 07:39:39;;;;;;;10.67;4.13;;;19.30;99.90;;;;;;5094623;28;20092;-72
2023/06/10 07:42:06;;;;;;;9.37;4.20;;;19.40;99.90;;;;;;5096330;28;20044;-72
2023/06/10 07:44:32;;;;;;;9.13;3.67;;;19.60;99.90;;;;;;5094642;28;20048;-71
2023/06/10 07:46:58;;;;;;;8.67;3.73;;;19.60;99.90;;;;;;5094578;28;20039;-72
2023/06/10 07:49:23;;;;;;;12.13;3.90;;;19.60;99.90;;;;;;5077586;28;20389;-72
2023/06/10 07:51:50;;;;;;;10.23;4.40;;;19.70;99.90;;;;;;5078007;28;20048;-73
2023/06/10 07:54:16;;;;;;;10.05;3.83;;;19.80;99.90;;;;;;5095646;28;20052;-73
2023/06/10 07:56:42;;;;;;;11.63;3.73;;;19.90;99.90;;;;;;5094309;28;20478;-74
2023/06/10 07:59:08;;;;;;;10.03;4.30;;;20.00;99.90;;;;;;5095808;28;20282;-72
2023/06/10 08:01:35;;;;;;;9.43;4.00;;;20.00;99.90;;;;;;5095412;28;20512;-72
2023/06/10 08:04:01;;;;;;;9.45;4.45;;;20.10;99.90;;;;;;5095517;28;20055;-73
2023/06/10 08:06:32;;;;;;;10.18;4.28;;;20.30;99.90;;;;;;5094449;28;20455;-72
2023/06/10 08:08:59;;;;;;;10.30;4.30;;;20.40;99.90;;;;;;5094024;28;20040;-71
2023/06/10 08:11:28;;;;;;;;;;;20.60;99.90;;;;;;5078299;28;20039;-70
2023/06/10 08:13:54;;;;;;;8.98;3.70;;;20.60;99.90;;;;;;5094743;28;19954;-73
2023/06/10 08:16:19;;;;;;;21.63;8.00;;;20.70;99.90;;;;;;5094114;28;20394;-73
2023/06/10 08:18:45;;;;;;;33.07;16.53;;;20.80;99.90;;;;;;5094772;28;20077;-72
2023/06/10 08:21:11;;;;;;;9.33;3.40;;;20.80;99.90;;;;;;5095239;28;20122;-71
2023/06/10 08:23:36;;;;;;;9.50;3.50;;;20.90;99.90;;;;;;5093922;28;20047;-73
2023/06/10 08:26:02;;;;;;;9.83;3.20;;;21.00;99.90;;;;;;5114663;28;20064;-71
2023/06/10 08:28:28;;;;;;;8.97;3.63;;;21.20;99.90;;;;;;5097679;28;20120;-70
2023/06/10 08:30:54;;;;;;;8.63;3.40;;;21.30;99.90;;;;;;5115473;28;20392;-71
2023/06/10 08:33:20;;;;;;;13.67;3.90;;;21.30;99.90;;;;;;5080027;28;20096;-73
2023/06/10 08:35:45;;;;;;;8.53;3.33;;;21.40;99.90;;;;;;5097001;28;20040;-72
2023/06/10 08:38:11;;;;;;;12.23;3.80;;;21.50;99.90;;;;;;5096826;28;20101;-74
2023/06/10 08:40:37;;;;;;;8.10;3.47;;;21.50;99.90;;;;;;5097102;28;20401;-72
2023/06/10 08:43:08;;;;;;;9.03;3.63;;;21.60;99.90;;;;;;5080982;28;20105;-73
2023/06/10 08:45:37;;;;;;;11.88;3.60;;;21.70;99.90;;;;;;5096799;28;20052;-72
2023/06/10 08:48:06;;;;;;;8.15;3.40;;;21.70;99.90;;;;;;5096973;28;20405;-71
2023/06/10 08:50:37;;;;;;;10.88;3.30;;;21.90;99.90;;;;;;5081118;28;20054;-70
2023/06/10 08:53:05;;;;;;;8.55;3.70;;;21.90;99.90;;;;;;5080157;28;20134;-71
2023/06/10 08:55:43;;;;;;;9.32;3.70;;;22.00;99.90;;;;;;5079849;28;20047;-72
2023/06/10 08:58:10;;;;;;;10.07;3.50;;;22.00;99.90;;;;;;5115242;28;20050;-74
2023/06/10 09:00:36;;;;;;;9.88;3.95;;;22.10;99.90;;;;;;5096520;28;20528;-74
2023/06/10 09:03:04;;;;;;;12.52;3.88;;;22.20;99.90;;;;;;5079729;28;20047;-74
2023/06/10 09:05:33;;;;;;;17.17;4.40;;;22.30;99.90;;;;;;5096521;28;20059;-72
2023/06/10 09:08:00;;;;;;;8.27;4.05;;;22.30;99.90;;;;;;5097094;28;20051;-72
2023/06/10 09:10:27;;;;;;;9.90;4.43;;;22.40;99.90;;;;;;5095654;28;20058;-72
2023/06/10 09:12:53;;;;;;;12.70;4.78;;;22.50;99.90;;;;;;5115179;28;20088;-71
2023/06/10 09:15:19;;;;;;;15.45;4.47;;;22.50;99.90;;;;;;5079692;28;20083;-69
2023/06/10 09:17:45;;;;;;;10.20;4.20;;;22.50;99.90;;;;;;5114987;28;20510;-71
2023/06/10 09:20:11;;;;;;;10.40;4.30;;;22.50;99.60;;;;;;5096411;28;20076;-71
2023/06/10 09:22:37;;;;;;;11.02;4.55;;;22.60;99.30;;;;;;5096010;28;20093;-72
2023/06/10 09:25:05;;;;;;;11.32;4.50;;;22.80;99.00;;;;;;5079175;28;20059;-71
2023/06/10 09:27:34;;;;;;;13.32;4.15;;;22.70;98.80;;;;;;5096236;28;20493;-71
2023/06/10 09:30:00;;;;;;;8.68;4.15;;;22.90;99.10;;;;;;5114133;28;20039;-72
2023/06/10 09:32:27;;;;;;;10.63;4.37;;;23.00;98.70;;;;;;5114158;28;20374;-71
2023/06/10 09:34:52;;;;;;;8.77;3.90;;;23.10;97.90;;;;;;5095662;28;20513;-71
2023/06/10 09:37:25;;;;;;;8.73;3.70;;;23.20;96.50;;;;;;5096409;28;20047;-73
2023/06/10 09:40:10;;;;;;;13.65;4.28;;;23.20;95.00;;;;;;5113784;28;20488;-72
2023/06/10 09:42:39;;;;;;;8.52;3.60;;;23.30;94.90;;;;;;5114753;28;20369;-72
2023/06/10 09:45:07;;;;;;;9.20;4.05;;;23.30;94.30;;;;;;5095984;28;20051;-71
2023/06/10 09:47:32;;;;;;;9.20;4.10;;;23.50;93.40;;;;;;5095793;28;20054;-73
2023/06/10 09:49:58;;;;;;;8.43;4.37;;;23.50;93.60;;;;;;5096343;28;20413;-70
2023/06/10 09:52:25;;;;;;;8.60;4.22;;;23.60;94.00;;;;;;5095820;28;20293;-73
2023/06/10 09:54:52;;;;;;;8.95;4.50;;;23.70;93.80;;;;;;5113799;28;20052;-72
2023/06/10 09:57:18;;;;;;;7.57;3.90;;;23.80;93.60;;;;;;5095728;28;20052;-70
2023/06/10 09:59:45;;;;;;;13.27;4.85;;;23.80;93.20;;;;;;5078775;28;20127;-72
2023/06/10 10:02:15;;;;;;;10.35;4.43;;;23.90;92.60;;;;;;5114240;28;20137;-72
2023/06/10 10:04:42;;;;;;;8.38;4.38;;;24.00;92.70;;;;;;5096566;28;20048;-73
2023/06/10 10:07:09;;;;;;;9.15;4.80;;;24.00;93.00;;;;;;5116615;28;20423;-72
2023/06/10 10:09:39;;;;;;;7.95;4.30;;;24.20;93.30;;;;;;5120439;28;20052;-72
2023/06/10 10:12:12;;;;;;;10.30;4.30;;;24.20;92.50;;;;;;5120537;28;20039;-72
2023/06/10 10:14:38;;;;;;;8.93;3.65;;;24.20;92.40;;;;;;5102182;28;20044;-73
2023/06/10 10:17:10;;;;;;;8.77;3.83;;;24.20;91.80;;;;;;5069045;28;20055;-75
2023/06/10 10:19:53;;;;;;;6.97;3.97;;;24.20;91.60;;;;;;5120934;28;20041;-74
2023/06/10 10:22:26;;;;;;;9.90;3.50;;;24.10;90.40;;;;;;5102456;28;20060;-72
2023/06/10 10:25:03;;;;;;;13.90;3.72;;;24.00;90.30;;;;;;5101823;28;20500;-72
2023/06/10 10:27:36;;;;;;;9.95;3.75;;;24.20;91.20;;;;;;5102492;28;20469;-70
2023/06/10 10:30:08;;;;;;;7.20;3.30;;;24.20;89.60;;;;;;5102163;28;20088;-72
2023/06/10 10:33:05;;;;;;;10.45;3.38;;;24.30;89.70;;;;;;5086445;28;20043;-70
2023/06/10 10:35:32;;;;;;;8.75;3.72;;;24.50;90.40;;;;;;5015091;28;20053;-73
2023/06/10 10:37:59;;;;;;;6.10;2.65;;;24.50;90.50;;;;;;5085910;28;20047;-71
2023/06/10 10:40:29;;;;;;;8.75;2.70;;;24.60;89.80;;;;;;5103070;28;20048;-73
2023/06/10 10:42:56;;;;;;;6.97;3.05;;;24.70;88.40;;;;;;5102019;28;20048;-76
2023/06/10 10:45:23;;;;;;;5.45;3.20;;;24.70;89.50;;;;;;5102143;28;20048;-72
2023/06/10 10:47:53;;;;;;;7.85;3.25;;;24.50;88.20;;;;;;5085029;28;20142;-72
2023/06/10 10:50:20;;;;;;;8.10;3.03;;;24.90;96.20;;;;;;5119956;28;20043;-69
2023/06/10 10:52:55;;;;;;;7.03;2.97;;;25.00;94.50;;;;;;5119816;28;20054;-72
2023/06/10 10:55:25;;;;;;;8.45;2.63;;;25.10;92.50;;;;;;5120001;28;20044;-71
2023/06/10 10:58:24;;;;;;;6.28;2.72;;;25.00;94.30;;;;;;5102044;28;20055;-72
2023/06/10 11:00:50;;;;;;;9.13;3.10;;;;;;;;;;5088076;28;20043;-74
2023/06/10 11:03:17;;;;;;;5.65;2.83;;;25.60;94.30;;;;;;5084486;28;20047;-71
2023/06/10 11:05:47;;;;;;;5.70;2.60;;;25.50;94.80;;;;;;5119450;28;20601;-71
2023/06/10 11:08:13;;;;;;;7.05;2.50;;;25.50;94.30;;;;;;5085136;28;20047;-71
2023/06/10 11:10:54;;;;;;;7.53;2.90;;;;;;;;;;5102371;28;20123;-72
2023/06/10 11:13:22;;;;;;;6.13;2.80;;;;;;;;;;5101580;28;20492;-73
2023/06/10 11:15:49;;;;;;;6.57;2.83;;;;;;;;;;5101482;28;20104;-72
2023/06/10 11:18:20;;;;;;;6.10;2.80;;;;;;;;;;5100970;28;20054;-72
2023/06/10 11:20:49;;;;;;;9.25;2.78;;;;;;;;;;5099226;28;20040;-72
2023/06/10 11:23:27;;;;;;;7.38;2.50;;;;;;;;;;5081806;28;20048;-72
2023/06/10 11:26:12;;;;;;;6.68;2.55;;;;;;;;;;5074578;28;20056;-73
2023/06/10 11:28:39;;;;;;;5.88;2.67;;;;;;;;;;5057869;28;20043;-71
2023/06/10 11:31:05;;;;;;;;;;;;;;;;;;5058490;28;20371;-72
2023/06/10 11:33:31;;;;;;;6.40;2.58;;;;;;;;;;5075773;28;19924;-73
2023/06/10 11:36:00;;;;;;;;;;;;;;;;;;5075822;28;20483;-73
2023/06/10 11:38:27;;;;;;;6.22;2.38;;;;;;;;;;5058057;28;19921;-72
2023/06/10 11:40:53;;;;;;;7.22;2.53;;;;;;;;;;5075220;28;20479;-72
2023/06/10 11:43:19;;;;;;;6.68;2.70;;;;;;;;;;5075544;28;20044;-70
2023/06/10 11:45:45;;;;;;;;;;;;;;;;;;5075408;28;20052;-72
2023/06/10 11:48:12;;;;;;;7.35;2.60;;;;;;;;;;5075441;28;19974;-72
2023/06/10 11:50:39;;;;;;;5.95;2.50;;;;;;;;;;5075451;28;20433;-72
2023/06/10 11:53:05;;;;;;;6.03;2.40;;;;;;;;;;5074820;28;20378;-73
2023/06/10 11:55:41;;;;;;;5.00;2.10;;;;;;;;;;5057889;28;20131;-72
2023/06/10 11:58:14;;;;;;;7.25;2.40;;;;;;;;;;5058333;28;20048;-71
2023/06/10 12:00:50;;;;;;;5.00;2.33;;;;;;;;;;5075818;28;20048;-70
2023/06/10 12:03:17;;;;;;;6.53;2.53;;;;;;;;;;5075137;28;20127;-74
2023/06/10 12:06:02;;;;;;;4.80;2.25;;;;;;;;;;5075223;28;20359;-73
2023/06/10 12:08:29;;;;;;;5.13;2.20;;;;;;;;;;5074926;28;20091;-71
2023/06/10 12:10:56;;;;;;;7.35;2.42;;;;;;;;;;5073813;28;20044;-71
2023/06/10 12:13:23;;;;;;;5.68;2.10;;;;;;;;;;5073876;28;20048;-75
2023/06/10 12:15:49;;;;;;;4.80;2.00;;;;;;;;;;5073842;28;20044;-74
2023/06/10 12:18:20;;;;;;;6.90;2.10;;;;;;;;;;5073938;28;20048;-73
2023/06/10 12:20:46;;;;;;;4.97;2.20;;;;;;;;;;5075197;28;20083;-73
2023/06/10 12:23:12;;;;;;;;;;;;;;;;;;5058397;28;20139;-74
2023/06/10 12:25:38;;;;;;;;;;;;;;;;;;5069213;28;19959;-74
2023/06/10 12:28:04;;;;;;;;;;;;;;;;;;5111392;28;19927;-74
2023/06/10 12:30:31;;;;;;;4.68;1.95;;;;;;;;;;5093342;28;20281;-73
2023/06/10 12:32:58;;;;;;;5.22;1.98;;;;;;;;;;5093737;28;20059;-75
2023/06/10 12:35:26;;;;;;;4.13;2.00;;;;;;;;;;5094791;28;20142;-73
2023/06/10 12:38:02;;;;;;;4.20;1.70;;;;;;;;;;5093404;28;20147;-73
2023/06/10 12:40:32;;;;;;;5.03;2.03;;;;;;;;;;5077515;28;20048;-70
2023/06/10 12:42:58;;;;;;;6.32;2.17;;;;;;;;;;5094658;28;20036;-73
2023/06/10 12:45:32;;;;;;;10.73;7.10;;;;;;;;;;5076680;28;20048;-73
2023/06/10 12:48:11;;;;;;;5.50;2.17;;;;;;;;;;5093238;28;20047;-73
2023/06/10 12:50:38;;;;;;;6.95;2.40;;;;;;;;;;5093115;28;20051;-72
2023/06/10 12:53:05;;;;;;;6.18;1.85;;;;;;;;;;5093219;28;20488;-72
2023/06/10 12:55:32;;;;;;;;;;;;;;;;;;5077653;28;20105;-71
2023/06/10 12:57:58;;;;;;;4.80;1.90;;;;;;;;;;5110179;28;20007;-73
2023/06/10 13:00:25;;;;;;;4.03;1.90;;;;;;;;;;5076692;28;20084;-73
2023/06/10 13:02:55;;;;;;;6.18;2.00;;;;;;;;;;5092648;28;20493;-72